createdAt,value
2023-04-07T00:02:12.506Z,100751.56
2023-04-07T00:04:38.985Z,100755.22
2023-04-07T00:07:05.325Z,100757.25
2023-04-07T00:09:31.750Z,100754.72
2023-04-07T00:11:58.156Z,100751.34
2023-04-07T00:14:24.526Z,100752.34
2023-04-07T00:16:51.062Z,100750.69
2023-04-07T00:19:17.601Z,100759.56
2023-04-07T00:21:43.926Z,100748.97
2023-04-07T00:24:10.862Z,100748.16
2023-04-07T00:26:38.196Z,100750.84
2023-04-07T00:29:04.653Z,100755.34
2023-04-07T00:31:31.129Z,100749.31
2023-04-07T00:33:57.939Z,100749.31
2023-04-07T00:36:24.455Z,100741.25
2023-04-07T00:38:50.864Z,100736.03
2023-04-07T00:41:17.312Z,100738.06
2023-04-07T00:43:43.970Z,100739.03
2023-04-07T00:46:10.479Z,100735.50
2023-04-07T00:48:37.166Z,100732.84
2023-04-07T00:51:05.226Z,100732.97
2023-04-07T00:53:31.738Z,100730.28
2023-04-07T00:55:58.311Z,100727.78
2023-04-07T00:58:24.884Z,100724.09
2023-04-07T01:01:07.268Z,100725.94
2023-04-07T01:03:39.573Z,100721.59
2023-04-07T01:06:08.381Z,100726.13
2023-04-07T01:09:16.221Z,100714.69
2023-04-07T01:12:12.521Z,100714.69
2023-04-07T01:14:50.855Z,100721.03
2023-04-07T01:17:19.461Z,100712.31
2023-04-07T01:19:55.917Z,100719.38
2023-04-07T01:22:32.975Z,100712.31
2023-04-07T01:25:30.541Z,100722.19
2023-04-07T01:28:09.168Z,100709.78
2023-04-07T01:30:39.350Z,100717.97
2023-04-07T01:33:08.428Z,100719.00
2023-04-07T01:35:37.053Z,100708.41
2023-04-07T01:38:04.157Z,100713.09
2023-04-07T01:40:32.901Z,100716.63
2023-04-07T01:43:01.160Z,100711.25
2023-04-07T01:45:28.757Z,100713.09
2023-04-07T01:47:55.831Z,100711.25
2023-04-07T01:50:23.165Z,100712.09
2023-04-07T01:52:49.747Z,100712.09
2023-04-07T01:55:16.366Z,100708.59
2023-04-07T01:57:42.828Z,100707.56
2023-04-07T02:00:09.677Z,100708.41
2023-04-07T02:02:41.780Z,100710.09
2023-04-07T02:05:12.469Z,100712.78
2023-04-07T02:08:00.978Z,100704.56
2023-04-07T02:10:29.357Z,100706.41
2023-04-07T02:12:58.351Z,100707.25
2023-04-07T02:15:26.187Z,100707.25
2023-04-07T02:17:54.667Z,100710.81
2023-04-07T02:20:22.276Z,100698.22
2023-04-07T02:22:49.094Z,100700.06
2023-04-07T02:25:29.565Z,100698.06
2023-04-07T02:27:57.844Z,100705.25
2023-04-07T02:30:25.826Z,100703.41
2023-04-07T02:32:53.240Z,100702.59
2023-04-07T02:35:20.504Z,100704.28
2023-04-07T02:37:47.496Z,100704.28
2023-04-07T02:40:14.415Z,100701.59
2023-04-07T02:42:40.822Z,100706.09
2023-04-07T02:45:08.969Z,100706.28
2023-04-07T02:47:36.535Z,100709.94
2023-04-07T02:50:03.338Z,100711.78
2023-04-07T02:52:29.676Z,100706.41
2023-04-07T02:54:56.168Z,100713.78
2023-04-07T02:57:22.744Z,100704.06
2023-04-07T02:59:49.230Z,100705.06
2023-04-07T03:02:15.937Z,100707.06
2023-04-07T03:04:42.506Z,100707.06
2023-04-07T03:07:08.913Z,100709.88
2023-04-07T03:09:35.388Z,100714.41
2023-04-07T03:12:02.243Z,100708.22
2023-04-07T03:14:28.598Z,100704.84
2023-04-07T03:16:54.984Z,100716.56
2023-04-07T03:19:21.488Z,100709.50
2023-04-07T03:21:48.394Z,100706.81
2023-04-07T03:24:14.800Z,100709.69
2023-04-07T03:26:41.142Z,100708.84
2023-04-07T03:29:07.518Z,100712.50
2023-04-07T03:31:33.890Z,100709.13
2023-04-07T03:34:00.382Z,100710.97
2023-04-07T03:36:27.981Z,100711.81
2023-04-07T03:38:54.370Z,100711.97
2023-04-07T03:41:21.244Z,100698.56
2023-04-07T03:43:47.582Z,100711.97
2023-04-07T03:46:13.991Z,100705.78
2023-04-07T03:48:40.856Z,100710.28
2023-04-07T03:51:07.407Z,100714.81
2023-04-07T03:53:33.726Z,100715.66
2023-04-07T03:56:00.952Z,100710.47
2023-04-07T03:58:27.401Z,100704.25
2023-04-07T04:00:53.753Z,100710.59
2023-04-07T04:03:20.258Z,100717.81
2023-04-07T04:05:46.753Z,100721.31
2023-04-07T04:08:13.065Z,100716.78
2023-04-07T04:10:39.438Z,100720.50
2023-04-07T04:13:07.895Z,100717.81
2023-04-07T04:15:34.276Z,100723.16
2023-04-07T04:18:01.228Z,100723.34
2023-04-07T04:20:27.614Z,100727.84
2023-04-07T04:22:54.005Z,100727.00
2023-04-07T04:25:20.939Z,100733.38
2023-04-07T04:27:47.265Z,100732.50
2023-04-07T04:30:13.865Z,100736.16
2023-04-07T04:32:40.883Z,100722.75
2023-04-07T04:35:07.645Z,100728.13
2023-04-07T04:37:34.620Z,100731.81
2023-04-07T04:40:00.981Z,100737.19
2023-04-07T04:42:28.024Z,100746.19
2023-04-07T04:44:54.424Z,100745.53
2023-04-07T04:47:20.785Z,100746.50
2023-04-07T04:49:47.139Z,100755.56
2023-04-07T04:52:13.522Z,100745.97
2023-04-07T04:54:39.904Z,100746.97
2023-04-07T04:57:06.558Z,100748.81
2023-04-07T04:59:33.950Z,100754.16
2023-04-07T05:02:00.425Z,100750.66
2023-04-07T05:04:28.353Z,100754.16
2023-04-07T05:06:54.895Z,100754.16
2023-04-07T05:09:21.316Z,100750.66
2023-04-07T05:11:47.927Z,100753.31
2023-04-07T05:14:14.266Z,100750.78
2023-04-07T05:16:40.827Z,100759.53
2023-04-07T05:19:07.297Z,100759.53
2023-04-07T05:21:33.748Z,100766.72
2023-04-07T05:24:00.086Z,100764.06
2023-04-07T05:26:27.034Z,100765.91
2023-04-07T05:28:53.444Z,100771.09
2023-04-07T05:31:19.805Z,100771.94
2023-04-07T05:33:46.360Z,100774.63
2023-04-07T05:36:12.742Z,100776.44
2023-04-07T05:38:39.205Z,100780.97
2023-04-07T05:41:05.580Z,100776.31
2023-04-07T05:43:31.920Z,100781.53
2023-04-07T05:45:58.427Z,100784.03
2023-04-07T05:48:24.810Z,100777.69
2023-04-07T05:50:51.226Z,100775.84
2023-04-07T05:53:17.677Z,100784.59
2023-04-07T05:55:44.114Z,100779.22
2023-04-07T05:58:11.064Z,100785.44
2023-04-07T06:00:37.534Z,100787.09
2023-04-07T06:03:04.255Z,100794.03
2023-04-07T06:05:30.913Z,100793.91
2023-04-07T06:07:57.243Z,100792.06
2023-04-07T06:10:23.634Z,100795.56
2023-04-07T06:12:50.107Z,100800.09
2023-04-07T06:15:16.706Z,100803.47
2023-04-07T06:17:45.573Z,100804.31
2023-04-07T06:20:12.488Z,100803.16
2023-04-07T06:22:39.463Z,100806.53
2023-04-07T06:25:06.948Z,100808.22
2023-04-07T06:27:33.393Z,100807.06
2023-04-07T06:29:59.762Z,100803.38
2023-04-07T06:32:26.402Z,100811.13
2023-04-07T06:34:52.757Z,100814.47
2023-04-07T06:37:19.262Z,100811.50
2023-04-07T06:39:45.835Z,100815.88
2023-04-07T06:42:12.175Z,100815.56
2023-04-07T06:44:38.515Z,100817.09
2023-04-07T06:47:04.903Z,100825.66
2023-04-07T06:49:31.266Z,100825.22
2023-04-07T06:51:57.662Z,100821.22
2023-04-07T06:54:24.192Z,100823.41
2023-04-07T06:56:51.895Z,100827.50
2023-04-07T06:59:20.075Z,100834.06
2023-04-07T07:01:46.428Z,100837.97
2023-04-07T07:04:12.892Z,100839.38
2023-04-07T07:06:39.359Z,100832.66
2023-04-07T07:09:05.740Z,100835.91
2023-04-07T07:11:32.141Z,100844.47
2023-04-07T07:13:58.517Z,100850.22
2023-04-07T07:16:24.905Z,100847.19
2023-04-07T07:18:51.485Z,100843.03
2023-04-07T07:21:18.908Z,100848.97
2023-04-07T07:23:45.930Z,100849.34
2023-04-07T07:26:12.583Z,100848.84
2023-04-07T07:28:39.071Z,100854.44
2023-04-07T07:31:13.221Z,100860.84
2023-04-07T07:33:41.340Z,100857.53
2023-04-07T07:36:08.362Z,100864.09
2023-04-07T07:38:36.082Z,100865.28
2023-04-07T07:41:04.079Z,100858.63
2023-04-07T07:43:30.614Z,100862.50
2023-04-07T07:45:56.984Z,100871.91
2023-04-07T07:48:23.415Z,100867.75
2023-04-07T07:50:51.893Z,100863.75
2023-04-07T07:53:18.857Z,100878.56
2023-04-07T07:55:46.865Z,100876.25
2023-04-07T07:58:13.277Z,100882.81
2023-04-07T08:00:40.667Z,100890.41
2023-04-07T08:03:07.225Z,100889.88
2023-04-07T08:05:33.607Z,100893.13
2023-04-07T08:08:00.058Z,100899.00
2023-04-07T08:10:26.463Z,100894.31
2023-04-07T08:12:52.777Z,100903.06
2023-04-07T08:15:19.229Z,100906.25
2023-04-07T08:17:45.635Z,100910.28
2023-04-07T08:20:12.383Z,100912.50
2023-04-07T08:22:38.726Z,100907.47
2023-04-07T08:25:05.417Z,100914.03
2023-04-07T08:27:31.781Z,100912.38
2023-04-07T08:30:03.594Z,100918.78
2023-04-07T08:32:41.178Z,100916.44
2023-04-07T08:35:07.919Z,100912.41
2023-04-07T08:37:35.127Z,100918.13
2023-04-07T08:40:03.642Z,100916.47
2023-04-07T08:42:33.332Z,100919.16
2023-04-07T08:45:06.223Z,100924.41
2023-04-07T08:47:34.230Z,100924.53
2023-04-07T08:50:05.638Z,100926.94
2023-04-07T08:52:44.093Z,100926.63
2023-04-07T08:55:11.188Z,100933.84
2023-04-07T08:57:38.117Z,100933.66
2023-04-07T09:00:05.982Z,100942.59
2023-04-07T09:02:37.676Z,100943.25
2023-04-07T09:05:05.949Z,100930.25
2023-04-07T09:07:33.755Z,100941.72
2023-04-07T09:10:01.629Z,100939.84
2023-04-07T09:12:29.416Z,100942.56
2023-04-07T09:14:56.275Z,100947.25
2023-04-07T09:17:22.941Z,100949.81
2023-04-07T09:19:49.389Z,100944.41
2023-04-07T09:22:15.809Z,100947.59
2023-04-07T09:24:42.482Z,100957.03
2023-04-07T09:27:17.828Z,100948.25
2023-04-07T09:29:46.580Z,100950.06
2023-04-07T09:32:17.919Z,100948.38
2023-04-07T09:34:44.246Z,100950.22
2023-04-07T09:37:22.089Z,100948.47
2023-04-07T09:39:50.685Z,100945.09
2023-04-07T09:42:17.303Z,100953.31
2023-04-07T09:44:44.251Z,100952.44
2023-04-07T09:47:11.181Z,100946.84
2023-04-07T09:49:54.627Z,100946.47
2023-04-07T09:52:46.479Z,100949.13
2023-04-07T09:55:14.505Z,100946.38
2023-04-07T09:57:42.078Z,100954.41
2023-04-07T10:00:10.345Z,100954.34
2023-04-07T10:02:36.937Z,100948.41
2023-04-07T10:05:04.337Z,100944.81
2023-04-07T10:07:31.390Z,100954.56
2023-04-07T10:09:57.823Z,100946.38
2023-04-07T10:12:24.694Z,100942.94
2023-04-07T10:14:51.694Z,100949.31
2023-04-07T10:17:20.425Z,100953.97
2023-04-07T10:19:48.814Z,100957.81
2023-04-07T10:22:16.679Z,100958.66
2023-04-07T10:24:58.980Z,100964.53
2023-04-07T10:27:33.993Z,100961.63
2023-04-07T10:30:01.518Z,100963.72
2023-04-07T10:32:27.997Z,100959.13
2023-04-07T10:34:54.446Z,100971.63
2023-04-07T10:37:22.593Z,100965.84
2023-04-07T10:39:51.123Z,100964.63
2023-04-07T10:42:36.257Z,100966.63
2023-04-07T10:45:03.501Z,100971.00
2023-04-07T10:47:30.802Z,100976.41
2023-04-07T10:50:19.897Z,100977.25
2023-04-07T10:52:48.620Z,100983.69
2023-04-07T10:55:40.018Z,100977.63
2023-04-07T10:58:31.662Z,100987.75
2023-04-07T11:01:01.363Z,100990.00
2023-04-07T11:03:29.730Z,100993.25
2023-04-07T11:06:14.284Z,100988.59
2023-04-07T11:08:47.577Z,100991.16
2023-04-07T11:11:39.829Z,100989.56
2023-04-07T11:14:06.619Z,100999.41
2023-04-07T11:16:41.921Z,101000.59
2023-04-07T11:19:08.758Z,100998.09
2023-04-07T11:21:36.527Z,101000.81
2023-04-07T11:24:03.058Z,101001.44
2023-04-07T11:26:30.293Z,101003.13
2023-04-07T11:28:58.796Z,101004.81
2023-04-07T11:31:26.816Z,101011.88
2023-04-07T11:34:00.226Z,101006.47
2023-04-07T11:36:33.139Z,101003.44
2023-04-07T11:39:00.739Z,101002.22
2023-04-07T11:41:28.568Z,101005.03
2023-04-07T11:44:11.440Z,101005.47
2023-04-07T11:46:53.922Z,100999.63
2023-04-07T11:49:20.648Z,101005.78
2023-04-07T11:51:47.173Z,101010.78
2023-04-07T11:54:13.827Z,101013.44
2023-04-07T11:56:47.833Z,101006.44
2023-04-07T11:59:25.032Z,101018.75
2023-04-07T12:01:55.245Z,101015.19
2023-04-07T12:04:23.630Z,101019.75
2023-04-07T12:06:50.256Z,101016.88
2023-04-07T12:09:36.071Z,101019.38
2023-04-07T12:12:08.454Z,101026.66
2023-04-07T12:14:35.588Z,101033.13
2023-04-07T12:17:03.569Z,101032.47
2023-04-07T12:19:33.584Z,101034.69
2023-04-07T12:21:59.960Z,101042.53
2023-04-07T12:24:27.187Z,101041.56
2023-04-07T12:26:53.573Z,101032.28
2023-04-07T12:29:20.337Z,101047.38
2023-04-07T12:31:49.387Z,101042.34
2023-04-07T12:34:17.146Z,101047.09
2023-04-07T12:36:44.640Z,101057.91
2023-04-07T12:39:11.087Z,101047.75
2023-04-07T12:41:38.675Z,101056.50
2023-04-07T12:44:05.438Z,101055.78
2023-04-07T12:46:32.009Z,101049.50
2023-04-07T12:48:58.464Z,101054.63
2023-04-07T12:51:26.096Z,101043.56
2023-04-07T12:53:54.206Z,101047.88
2023-04-07T12:56:22.322Z,101061.78
2023-04-07T12:58:48.778Z,101056.94
2023-04-07T13:01:15.327Z,101057.69
2023-04-07T13:03:41.902Z,101053.03
2023-04-07T13:06:08.451Z,101043.13
2023-04-07T13:08:34.885Z,101042.38
2023-04-07T13:11:01.413Z,101051.25
2023-04-07T13:13:28.258Z,101054.50
2023-04-07T13:15:54.707Z,101051.50
2023-04-07T13:18:21.739Z,101038.69
2023-04-07T13:21:02.921Z,101048.59
2023-04-07T13:23:49.427Z,101045.19
2023-04-07T13:26:16.161Z,101048.13
2023-04-07T13:28:45.787Z,101051.50
2023-04-07T13:31:15.778Z,101048.63
2023-04-07T13:33:42.437Z,101044.84
2023-04-07T13:36:08.914Z,101042.97
2023-04-07T13:38:35.310Z,101051.13
2023-04-07T13:41:03.535Z,101049.88
2023-04-07T13:43:30.000Z,101046.16
2023-04-07T13:45:56.599Z,101052.25
2023-04-07T13:48:22.989Z,101042.00
2023-04-07T13:50:49.539Z,101046.59
2023-04-07T13:53:17.824Z,101038.69
2023-04-07T13:55:45.344Z,101039.91
2023-04-07T13:58:11.790Z,101034.84
2023-04-07T14:00:38.440Z,101040.66
2023-04-07T14:03:04.897Z,101038.50
2023-04-07T14:05:31.725Z,101039.78
2023-04-07T14:07:58.121Z,101035.56
2023-04-07T14:10:24.560Z,101041.00
2023-04-07T14:12:50.986Z,101039.13
2023-04-07T14:15:18.462Z,101043.31
2023-04-07T14:17:44.932Z,101044.16
2023-04-07T14:20:11.525Z,101041.44
2023-04-07T14:22:37.926Z,101037.91
2023-04-07T14:25:05.370Z,101037.41
2023-04-07T14:27:31.832Z,101035.94
2023-04-07T14:29:59.737Z,101046.31
2023-04-07T14:32:29.253Z,101053.16
2023-04-07T14:34:56.585Z,101048.31
2023-04-07T14:37:26.244Z,101047.00
2023-04-07T14:40:02.680Z,101045.53
2023-04-07T14:42:29.873Z,101046.09
2023-04-07T14:44:56.655Z,101052.53
2023-04-07T14:47:23.534Z,101052.38
2023-04-07T14:49:53.060Z,101059.28
2023-04-07T14:52:20.545Z,101050.75
2023-04-07T14:54:47.302Z,101059.16
2023-04-07T14:57:13.736Z,101051.69
2023-04-07T14:59:40.170Z,101059.63
2023-04-07T15:02:06.960Z,101061.66
2023-04-07T15:04:33.698Z,101057.69
2023-04-07T15:07:00.182Z,101062.16
2023-04-07T15:09:26.599Z,101062.28
2023-04-07T15:11:53.157Z,101063.75
2023-04-07T15:14:19.506Z,101066.75
2023-04-07T15:16:47.811Z,101076.66
2023-04-07T15:19:14.403Z,101069.28
2023-04-07T15:21:40.957Z,101076.75
2023-04-07T15:24:07.436Z,101071.34
2023-04-07T15:26:33.998Z,101073.84
2023-04-07T15:29:01.030Z,101073.66
2023-04-07T15:31:28.565Z,101074.34
2023-04-07T15:33:55.339Z,101078.53
2023-04-07T15:36:21.683Z,101080.03
2023-04-07T15:38:48.016Z,101085.91
2023-04-07T15:41:16.320Z,101085.72
2023-04-07T15:43:42.819Z,101080.94
2023-04-07T15:46:09.241Z,101085.34
2023-04-07T15:48:35.716Z,101084.31
2023-04-07T15:51:02.226Z,101090.75
2023-04-07T15:53:29.473Z,101089.94
2023-04-07T15:55:56.009Z,101092.63
2023-04-07T15:58:22.361Z,101089.06
2023-04-07T16:00:48.796Z,101099.28
2023-04-07T16:03:15.686Z,101094.03
2023-04-07T16:05:42.152Z,101093.38
2023-04-07T16:08:08.531Z,101093.56
2023-04-07T16:10:34.898Z,101093.75
2023-04-07T16:13:01.346Z,101093.91
2023-04-07T16:15:39.319Z,101096.00
2023-04-07T16:18:10.019Z,101094.28
2023-04-07T16:20:36.656Z,101099.72
2023-04-07T16:23:03.106Z,101099.72
2023-04-07T16:25:29.892Z,101101.41
2023-04-07T16:27:56.378Z,101105.78
2023-04-07T16:30:23.892Z,101103.06
2023-04-07T16:32:50.281Z,101099.53
2023-04-07T16:35:17.054Z,101106.81
2023-04-07T16:37:45.759Z,101103.25
2023-04-07T16:40:12.443Z,101107.00
2023-04-07T16:42:38.929Z,101108.88
2023-04-07T16:45:06.082Z,101109.25
2023-04-07T16:47:32.835Z,101110.47
2023-04-07T16:49:59.603Z,101117.09
2023-04-07T16:52:26.832Z,101123.72
2023-04-07T16:54:53.548Z,101117.47
2023-04-07T16:57:19.905Z,101130.78
2023-04-07T16:59:47.137Z,101126.22
2023-04-07T17:02:16.674Z,101131.63
2023-04-07T17:04:43.913Z,101133.03
2023-04-07T17:07:11.010Z,101140.22
2023-04-07T17:09:37.692Z,101137.59
2023-04-07T17:12:05.777Z,101140.53
2023-04-07T17:14:32.270Z,101148.94
2023-04-07T17:16:58.729Z,101143.75
2023-04-07T17:19:25.230Z,101157.72
2023-04-07T17:21:51.691Z,101155.38
2023-04-07T17:24:18.328Z,101164.56
2023-04-07T17:26:48.233Z,101164.78
2023-04-07T17:29:15.895Z,101167.75
2023-04-07T17:31:42.434Z,101180.44
2023-04-07T17:34:08.953Z,101183.19
2023-04-07T17:36:35.726Z,101173.75
2023-04-07T17:39:03.278Z,101189.38
2023-04-07T17:41:31.127Z,101195.78
2023-04-07T17:43:57.654Z,101194.16
2023-04-07T17:46:24.152Z,101203.94
2023-04-07T17:48:51.572Z,101200.22
2023-04-07T17:51:18.104Z,101202.94
2023-04-07T17:53:44.515Z,101204.13
2023-04-07T17:56:10.963Z,101205.66
2023-04-07T17:58:37.484Z,101214.94
2023-04-07T18:01:04.234Z,101212.88
2023-04-07T18:03:30.782Z,101224.16
2023-04-07T18:05:57.394Z,101220.97
2023-04-07T18:08:24.878Z,101226.81
2023-04-07T18:10:51.503Z,101221.91
2023-04-07T18:13:18.648Z,101227.41
2023-04-07T18:15:45.127Z,101230.41
2023-04-07T18:18:12.130Z,101233.38
2023-04-07T18:20:38.648Z,101243.44
2023-04-07T18:23:05.615Z,101243.72
2023-04-07T18:25:32.132Z,101243.69
2023-04-07T18:27:59.095Z,101242.09
2023-04-07T18:30:25.496Z,101249.25
2023-04-07T18:32:52.016Z,101247.34
2023-04-07T18:35:18.512Z,101251.69
2023-04-07T18:37:44.917Z,101263.91
2023-04-07T18:40:11.980Z,101261.84
2023-04-07T18:42:38.428Z,101264.16
2023-04-07T18:45:05.305Z,101269.16
2023-04-07T18:47:31.760Z,101274.34
2023-04-07T18:49:58.492Z,101279.47
2023-04-07T18:52:26.302Z,101280.94
2023-04-07T18:54:52.794Z,101282.72
2023-04-07T18:57:19.255Z,101292.38
2023-04-07T18:59:45.910Z,101292.28
2023-04-07T19:02:12.543Z,101295.59
2023-04-07T19:04:39.077Z,101298.13
2023-04-07T19:07:05.811Z,101302.44
2023-04-07T19:09:33.240Z,101315.47
2023-04-07T19:11:59.660Z,101307.31
2023-04-07T19:14:26.155Z,101311.59
2023-04-07T19:16:52.800Z,101320.38
2023-04-07T19:19:19.248Z,101321.00
2023-04-07T19:21:45.737Z,101320.88
2023-04-07T19:24:12.088Z,101318.94
2023-04-07T19:26:38.443Z,101326.56
2023-04-07T19:29:04.939Z,101323.63
2023-04-07T19:31:31.470Z,101326.88
2023-04-07T19:33:58.499Z,101327.59
2023-04-07T19:36:25.897Z,101328.19
2023-04-07T19:38:52.337Z,101335.84
2023-04-07T19:41:18.722Z,101336.38
2023-04-07T19:43:45.253Z,101343.16
2023-04-07T19:46:11.828Z,101336.69
2023-04-07T19:48:38.249Z,101336.41
2023-04-07T19:51:07.120Z,101337.00
2023-04-07T19:53:33.860Z,101339.38
2023-04-07T19:56:01.732Z,101339.66
2023-04-07T19:58:28.072Z,101348.28
2023-04-07T20:00:55.386Z,101346.00
2023-04-07T20:03:22.608Z,101347.25
2023-04-07T20:05:49.520Z,101344.13
2023-04-07T20:08:16.378Z,101344.69
2023-04-07T20:10:42.718Z,101352.28
2023-04-07T20:13:09.562Z,101350.19
2023-04-07T20:15:36.131Z,101347.06
2023-04-07T20:18:03.650Z,101349.31
2023-04-07T20:20:30.171Z,101351.53
2023-04-07T20:22:56.477Z,101350.09
2023-04-07T20:25:22.936Z,101351.50
2023-04-07T20:27:50.000Z,101355.47
2023-04-07T20:30:16.421Z,101355.97
2023-04-07T20:32:43.460Z,101359.09
2023-04-07T20:35:11.631Z,101355.97
2023-04-07T20:37:37.993Z,101355.53
2023-04-07T20:40:04.878Z,101359.44
2023-04-07T20:42:31.326Z,101359.84
2023-04-07T20:45:02.225Z,101361.09
2023-04-07T20:47:28.764Z,101371.22
2023-04-07T20:49:55.263Z,101368.13
2023-04-07T20:52:21.599Z,101363.88
2023-04-07T20:54:48.376Z,101367.91
2023-04-07T20:57:14.755Z,101370.84
2023-04-07T20:59:41.074Z,101375.75
2023-04-07T21:02:07.571Z,101371.78
2023-04-07T21:04:34.216Z,101373.88
2023-04-07T21:07:00.536Z,101379.50
2023-04-07T21:09:27.038Z,101385.22
2023-04-07T21:11:53.660Z,101388.28
2023-04-07T21:14:20.603Z,101398.53
2023-04-07T21:16:46.970Z,101394.44
2023-04-07T21:19:13.289Z,101391.31
2023-04-07T21:21:39.620Z,101397.03
2023-04-07T21:24:06.273Z,101400.09
2023-04-07T21:26:32.671Z,101406.69
2023-04-07T21:28:59.004Z,101402.69
2023-04-07T21:31:26.670Z,101402.22
2023-04-07T21:33:53.492Z,101407.81
2023-04-07T21:36:19.926Z,101410.63
2023-04-07T21:38:46.296Z,101414.41
2023-04-07T21:41:12.686Z,101415.50
2023-04-07T21:43:39.362Z,101418.28
2023-04-07T21:46:06.268Z,101416.00
2023-04-07T21:48:34.693Z,101419.88
2023-04-07T21:51:01.813Z,101414.88
2023-04-07T21:53:28.258Z,101412.63
2023-04-07T21:55:54.582Z,101422.56
2023-04-07T21:58:23.338Z,101415.50
2023-04-07T22:00:50.007Z,101415.50
2023-04-07T22:03:18.443Z,101423.31
2023-04-07T22:05:45.795Z,101417.56
2023-04-07T22:08:13.014Z,101431.31
2023-04-07T22:10:39.493Z,101427.28
2023-04-07T22:13:06.116Z,101432.00
2023-04-07T22:15:32.470Z,101430.53
2023-04-07T22:17:58.958Z,101435.38
2023-04-07T22:20:25.864Z,101442.03
2023-04-07T22:22:54.037Z,101431.81
2023-04-07T22:25:20.537Z,101433.38
2023-04-07T22:27:46.892Z,101437.50
2023-04-07T22:30:13.263Z,101440.88
2023-04-07T22:32:41.276Z,101450.47
2023-04-07T22:35:08.023Z,101444.28
2023-04-07T22:37:34.490Z,101444.28
2023-04-07T22:40:00.991Z,101450.63
2023-04-07T22:42:27.349Z,101447.94
2023-04-07T22:44:53.803Z,101456.94
2023-04-07T22:47:21.916Z,101456.25
2023-04-07T22:49:48.362Z,101462.53
2023-04-07T22:52:14.690Z,101452.09
2023-04-07T22:54:41.068Z,101454.06
2023-04-07T22:57:07.501Z,101457.72
2023-04-07T22:59:33.852Z,101465.13
2023-04-07T23:02:00.294Z,101464.44
2023-04-07T23:04:27.333Z,101472.56
2023-04-07T23:06:53.778Z,101471.84
2023-04-07T23:09:20.160Z,101464.91
2023-04-07T23:11:47.313Z,101471.25
2023-04-07T23:14:13.989Z,101482.06
2023-04-07T23:16:40.676Z,101478.69
2023-04-07T23:19:11.477Z,101488.66
2023-04-07T23:21:39.000Z,101486.22
2023-04-07T23:24:05.446Z,101484.66
2023-04-07T23:26:31.969Z,101492.06
2023-04-07T23:28:58.383Z,101494.03
2023-04-07T23:31:24.909Z,101494.25
2023-04-07T23:33:51.517Z,101482.84
2023-04-07T23:36:18.130Z,101496.44
2023-04-07T23:38:44.610Z,101487.81
2023-04-07T23:41:10.938Z,101487.91
2023-04-07T23:43:37.355Z,101497.03
2023-04-07T23:46:03.773Z,101491.09
2023-04-07T23:48:31.034Z,101493.03
2023-04-07T23:50:59.676Z,101496.78
2023-04-07T23:53:26.118Z,101492.53
2023-04-07T23:55:52.487Z,101490.00
2023-04-07T23:58:18.817Z,101501.78
